createdAt,value
2023-05-24T00:02:50.250Z,13.40
2023-05-24T00:12:39.794Z,13.30
2023-05-24T00:20:11.079Z,13.20
2023-05-24T00:22:38.648Z,13.10
2023-05-24T00:25:06.048Z,13.10
2023-05-24T00:27:33.058Z,13.10
2023-05-24T00:42:15.433Z,13.10
2023-05-24T00:47:09.214Z,13.20
2023-05-24T00:49:36.056Z,13.10
2023-05-24T00:52:02.767Z,13.10
2023-05-24T00:54:29.406Z,13.10
2023-05-24T00:56:56.770Z,13.00
2023-05-24T00:59:23.901Z,13.00
2023-05-24T01:01:50.595Z,12.90
2023-05-24T01:04:17.746Z,12.90
2023-05-24T01:07:03.060Z,12.90
2023-05-24T01:09:34.539Z,13.00
2023-05-24T01:12:19.791Z,12.90
2023-05-24T01:20:02.292Z,12.90
2023-05-24T01:25:05.126Z,12.80
2023-05-24T01:27:33.316Z,12.90
2023-05-24T01:30:00.288Z,12.70
2023-05-24T01:32:27.293Z,12.70
2023-05-24T01:34:53.982Z,12.50
2023-05-24T01:37:20.592Z,12.50
2023-05-24T01:39:47.470Z,12.50
2023-05-24T01:42:14.062Z,12.50
2023-05-24T01:47:28.190Z,12.40
2023-05-24T02:02:11.562Z,12.50
2023-05-24T02:07:05.275Z,12.40
2023-05-24T02:39:04.243Z,12.40
2023-05-24T02:41:30.869Z,12.40
2023-05-24T02:43:57.455Z,12.20
2023-05-24T02:46:24.121Z,12.20
2023-05-24T02:48:50.936Z,12.10
2023-05-24T02:51:17.644Z,12.10
2023-05-24T02:53:45.345Z,12.20
2023-05-24T02:56:13.686Z,12.20
2023-05-24T02:58:41.112Z,12.20
2023-05-24T03:03:35.487Z,12.10
2023-05-24T03:06:02.429Z,12.10
2023-05-24T03:08:29.043Z,12.00
2023-05-24T03:10:55.712Z,12.10
2023-05-24T03:13:22.517Z,12.10
2023-05-24T03:15:49.233Z,12.10
2023-05-24T03:18:17.979Z,12.10
2023-05-24T03:20:44.900Z,12.10
2023-05-24T03:25:39.196Z,12.10
2023-05-24T03:28:05.841Z,12.10
2023-05-24T03:30:32.651Z,12.00
2023-05-24T03:32:59.659Z,12.00
2023-05-24T03:35:26.851Z,12.00
2023-05-24T03:45:19.423Z,12.20
2023-05-24T03:47:50.905Z,12.10
2023-05-24T03:50:17.546Z,12.20
2023-05-24T03:52:44.192Z,12.20
2023-05-24T03:55:11.642Z,12.20
2023-05-24T03:57:38.351Z,12.10
2023-05-24T04:02:33.974Z,12.10
2023-05-24T04:05:00.690Z,12.10
2023-05-24T04:07:28.235Z,12.20
2023-05-24T04:12:21.964Z,12.20
2023-05-24T04:14:48.580Z,12.20
2023-05-24T04:17:15.224Z,12.20
2023-05-24T04:19:41.917Z,12.10
2023-05-24T04:22:08.528Z,12.20
2023-05-24T04:24:35.258Z,12.20
2023-05-24T04:27:01.954Z,12.20
2023-05-24T04:29:28.558Z,12.10
2023-05-24T04:31:56.403Z,12.20
2023-05-24T04:34:23.277Z,12.20
2023-05-24T04:36:52.431Z,12.20
2023-05-24T04:41:46.289Z,12.30
2023-05-24T04:44:12.906Z,12.30
2023-05-24T04:46:39.523Z,12.30
2023-05-24T04:49:08.359Z,12.30
2023-05-24T04:51:38.354Z,12.40
2023-05-24T04:54:08.997Z,12.30
2023-05-24T04:56:36.275Z,12.30
2023-05-24T04:59:02.863Z,12.40
2023-05-24T05:01:29.938Z,12.40
2023-05-24T05:03:56.605Z,12.40
2023-05-24T05:06:23.481Z,12.50
2023-05-24T05:08:50.159Z,12.60
2023-05-24T05:11:18.614Z,12.60
2023-05-24T05:13:45.704Z,12.70
2023-05-24T05:21:06.401Z,12.70
2023-05-24T05:23:33.037Z,12.80
2023-05-24T05:25:59.706Z,13.40
2023-05-24T05:28:26.346Z,13.50
2023-05-24T05:30:53.428Z,13.20
2023-05-24T05:35:47.223Z,13.20
2023-05-24T05:38:13.764Z,13.10
2023-05-24T05:40:40.465Z,12.90
2023-05-24T05:43:08.530Z,13.00
2023-05-24T05:48:02.410Z,13.10
2023-05-24T05:50:29.071Z,13.10
2023-05-24T05:52:56.541Z,13.10
2023-05-24T05:55:23.355Z,13.00
2023-05-24T05:57:49.982Z,13.10
2023-05-24T06:00:16.854Z,13.10
2023-05-24T06:02:43.649Z,13.20
2023-05-24T06:05:10.477Z,13.20
2023-05-24T06:07:38.594Z,13.30
2023-05-24T06:10:06.370Z,13.30
2023-05-24T06:12:32.985Z,13.30
2023-05-24T06:14:59.879Z,13.10
2023-05-24T06:17:27.915Z,13.10
2023-05-24T06:19:55.847Z,13.20
2023-05-24T06:22:23.078Z,13.20
2023-05-24T06:24:49.706Z,13.20
2023-05-24T06:27:16.324Z,13.10
2023-05-24T06:32:10.149Z,13.20
2023-05-24T06:34:36.914Z,13.30
2023-05-24T06:37:03.620Z,13.30
2023-05-24T06:39:30.253Z,13.40
2023-05-24T06:41:57.517Z,13.50
2023-05-24T06:44:30.391Z,13.50
2023-05-24T06:46:57.067Z,13.60
2023-05-24T06:49:23.731Z,13.60
2023-05-24T06:54:17.393Z,13.50
2023-05-24T07:04:06.559Z,13.50
2023-05-24T07:06:33.276Z,13.60
2023-05-24T07:09:01.844Z,13.60
2023-05-24T07:11:28.640Z,13.50
2023-05-24T07:13:55.351Z,13.60
2023-05-24T07:16:22.015Z,13.70
2023-05-24T07:18:48.666Z,13.90
2023-05-24T07:21:15.298Z,14.10
2023-05-24T07:23:41.923Z,14.30
2023-05-24T07:26:09.175Z,14.50
2023-05-24T07:28:38.891Z,14.60
2023-05-24T07:31:05.745Z,14.80
2023-05-24T07:33:32.378Z,14.90
2023-05-24T07:35:59.015Z,14.60
2023-05-24T07:40:53.289Z,14.80
2023-05-24T07:43:19.968Z,14.80
2023-05-24T07:45:47.046Z,14.70
2023-05-24T07:48:13.773Z,14.70
2023-05-24T07:50:40.622Z,14.80
2023-05-24T07:53:07.429Z,14.80
2023-05-24T07:58:01.346Z,15.00
2023-05-24T08:00:27.996Z,15.00
2023-05-24T08:05:22.116Z,14.90
2023-05-24T08:07:48.763Z,14.80
2023-05-24T08:10:15.389Z,14.80
2023-05-24T08:27:30.600Z,14.90
2023-05-24T08:37:25.053Z,14.80
2023-05-24T09:04:24.603Z,15.40
2023-05-24T09:06:52.053Z,15.40
2023-05-24T09:09:21.409Z,15.50
2023-05-24T09:11:51.807Z,15.50
2023-05-24T09:14:18.740Z,15.50
2023-05-24T09:16:45.721Z,15.50
2023-05-24T09:19:12.380Z,15.30
2023-05-24T09:21:39.053Z,15.30
2023-05-24T09:24:08.523Z,15.40
2023-05-24T09:26:36.649Z,15.40
2023-05-24T09:29:06.947Z,15.50
2023-05-24T09:31:34.612Z,15.50
2023-05-24T09:34:01.765Z,15.50
2023-05-24T09:36:33.500Z,15.60
2023-05-24T09:39:09.115Z,15.60
2023-05-24T09:44:06.187Z,15.70
2023-05-24T09:46:36.012Z,15.70
2023-05-24T09:49:04.074Z,15.80
2023-05-24T09:51:31.052Z,15.70
2023-05-24T09:53:57.824Z,15.70
2023-05-24T09:58:51.752Z,15.30
2023-05-24T10:08:41.843Z,15.50
2023-05-24T10:11:08.706Z,15.50
2023-05-24T10:13:36.465Z,15.50
2023-05-24T10:16:03.416Z,15.70
2023-05-24T10:18:30.549Z,15.80
2023-05-24T10:20:58.362Z,15.90
2023-05-24T10:23:29.624Z,16.00
2023-05-24T10:26:00.083Z,16.10
2023-05-24T10:28:27.512Z,16.30
2023-05-24T10:31:07.513Z,16.50
2023-05-24T10:33:36.042Z,16.60
2023-05-24T10:36:04.453Z,16.70
2023-05-24T10:38:32.430Z,16.70
2023-05-24T10:40:59.354Z,16.60
2023-05-24T10:43:26.184Z,16.70
2023-05-24T10:45:53.227Z,16.80
2023-05-24T10:48:28.915Z,16.70
2023-05-24T10:50:56.510Z,16.80
2023-05-24T10:53:23.683Z,16.80
2023-05-24T10:56:06.312Z,16.80
2023-05-24T10:58:58.195Z,16.90
2023-05-24T11:03:53.522Z,17.00
2023-05-24T11:06:20.291Z,17.00
2023-05-24T11:08:47.010Z,17.10
2023-05-24T11:11:25.591Z,17.20
2023-05-24T11:13:56.859Z,17.50
2023-05-24T11:16:32.891Z,17.40
2023-05-24T11:19:04.436Z,17.60
2023-05-24T11:21:31.544Z,17.60
2023-05-24T11:23:58.345Z,17.80
2023-05-24T11:31:19.331Z,17.70
2023-05-24T11:33:46.445Z,17.70
2023-05-24T11:36:14.698Z,18.00
2023-05-24T11:38:41.373Z,18.00
2023-05-24T11:41:08.080Z,18.30
2023-05-24T11:43:34.816Z,18.40
2023-05-24T11:46:01.663Z,18.50
2023-05-24T11:48:29.825Z,18.60
2023-05-24T11:50:56.587Z,19.20
2023-05-24T11:53:23.302Z,18.70
2023-05-24T11:55:50.943Z,18.80
2023-05-24T11:58:25.468Z,18.90
2023-05-24T12:00:52.814Z,18.90
2023-05-24T12:03:19.661Z,19.00
2023-05-24T12:05:46.386Z,18.90
2023-05-24T12:08:15.415Z,18.70
2023-05-24T12:10:43.308Z,18.70
2023-05-24T12:13:23.930Z,18.70
2023-05-24T12:15:55.620Z,18.70
2023-05-24T12:18:23.902Z,17.20
2023-05-24T12:20:50.936Z,18.80
2023-05-24T12:23:23.340Z,18.80
2023-05-24T12:25:50.195Z,18.90
2023-05-24T12:28:21.696Z,18.90
2023-05-24T12:30:49.939Z,19.10
2023-05-24T12:33:18.821Z,19.40
2023-05-24T12:35:46.667Z,19.70
2023-05-24T12:38:13.450Z,19.60
2023-05-24T12:40:42.663Z,19.90
2023-05-24T12:43:10.518Z,20.70
2023-05-24T12:45:37.190Z,20.40
2023-05-24T12:48:05.137Z,20.70
2023-05-24T12:50:32.086Z,20.40
2023-05-24T12:52:58.778Z,20.50
2023-05-24T12:55:26.346Z,20.70
2023-05-24T12:57:54.307Z,21.00
2023-05-24T13:00:21.690Z,21.40
2023-05-24T13:02:48.681Z,21.80
2023-05-24T13:05:16.109Z,22.30
2023-05-24T13:07:43.705Z,22.50
2023-05-24T13:10:10.536Z,23.30
2023-05-24T13:12:37.162Z,23.30
2023-05-24T13:15:04.702Z,23.50
2023-05-24T13:17:31.401Z,23.80
2023-05-24T13:19:59.247Z,24.30
2023-05-24T13:22:25.897Z,24.70
2023-05-24T13:24:52.532Z,25.00
2023-05-24T13:27:19.559Z,25.40
2023-05-24T13:29:59.572Z,25.90
2023-05-24T13:32:28.041Z,25.90
2023-05-24T13:34:54.826Z,26.00
2023-05-24T13:37:21.514Z,26.20
2023-05-24T13:39:48.152Z,27.00
2023-05-24T13:42:14.877Z,26.40
2023-05-24T13:44:41.716Z,26.50
2023-05-24T13:47:08.528Z,26.40
2023-05-24T13:49:35.300Z,26.50
2023-05-24T13:52:02.526Z,25.70
2023-05-24T13:54:29.248Z,25.30
2023-05-24T13:56:57.607Z,25.10
2023-05-24T13:59:24.681Z,24.80
2023-05-24T14:01:51.365Z,25.30
2023-05-24T14:04:18.298Z,25.60
2023-05-24T14:06:44.980Z,26.00
2023-05-24T14:09:11.661Z,26.20
2023-05-24T14:11:38.341Z,26.20
2023-05-24T14:16:34.592Z,25.80
2023-05-24T14:19:01.197Z,26.00
2023-05-24T14:21:27.939Z,25.60
2023-05-24T14:23:54.680Z,25.60
2023-05-24T14:26:23.416Z,25.40
2023-05-24T14:28:52.289Z,24.80
2023-05-24T14:31:20.332Z,24.60
2023-05-24T14:33:46.970Z,24.50
2023-05-24T14:36:13.554Z,24.50
2023-05-24T14:38:40.211Z,23.70
2023-05-24T14:41:06.984Z,23.40
2023-05-24T14:43:33.673Z,23.40
2023-05-24T14:46:00.322Z,23.30
2023-05-24T14:48:26.956Z,23.10
2023-05-24T14:50:53.686Z,22.80
2023-05-24T14:53:20.641Z,22.60
2023-05-24T14:55:47.383Z,22.40
2023-05-24T14:58:14.505Z,22.20
2023-05-24T15:00:42.155Z,22.20
2023-05-24T15:03:09.411Z,22.10
2023-05-24T15:05:36.440Z,21.70
2023-05-24T15:08:03.572Z,23.20
2023-05-24T15:10:30.197Z,21.40
2023-05-24T15:12:56.805Z,21.30
2023-05-24T15:15:23.583Z,21.10
2023-05-24T15:17:50.230Z,20.90
2023-05-24T15:20:16.925Z,20.80
2023-05-24T15:22:43.705Z,20.90
2023-05-24T15:25:11.192Z,20.80
2023-05-24T15:27:37.918Z,20.80
2023-05-24T15:30:04.963Z,20.70
2023-05-24T15:32:31.769Z,20.70
2023-05-24T15:35:00.361Z,20.70
2023-05-24T15:37:27.503Z,20.50
2023-05-24T15:39:54.424Z,20.30
2023-05-24T15:42:21.738Z,20.40
2023-05-24T15:44:48.447Z,20.30
2023-05-24T15:47:15.060Z,20.20
2023-05-24T15:49:41.682Z,20.00
2023-05-24T15:52:08.793Z,19.80
2023-05-24T15:54:35.933Z,19.50
2023-05-24T15:57:02.654Z,19.50
2023-05-24T15:59:29.438Z,19.40
2023-05-24T16:01:56.898Z,19.50
2023-05-24T16:04:23.684Z,19.70
2023-05-24T16:06:50.497Z,19.80
2023-05-24T16:09:17.121Z,19.90
2023-05-24T16:11:43.746Z,18.10
2023-05-24T16:14:10.434Z,20.00
2023-05-24T16:16:37.873Z,20.50
2023-05-24T16:19:04.760Z,20.10
2023-05-24T16:21:32.737Z,19.70
2023-05-24T16:24:01.932Z,19.70
2023-05-24T16:26:30.689Z,19.60
2023-05-24T16:28:58.137Z,19.30
2023-05-24T16:31:27.081Z,19.20
2023-05-24T16:33:54.102Z,19.00
2023-05-24T16:36:21.275Z,18.70
2023-05-24T16:38:47.868Z,18.70
2023-05-24T16:41:14.551Z,18.80
2023-05-24T16:43:41.233Z,18.60
2023-05-24T16:46:08.107Z,18.30
2023-05-24T16:48:34.892Z,18.30
2023-05-24T16:51:01.615Z,18.30
2023-05-24T16:53:28.305Z,18.60
2023-05-24T16:55:55.884Z,18.30
2023-05-24T16:58:23.752Z,18.30
2023-05-24T17:00:50.666Z,18.10
2023-05-24T17:03:17.326Z,17.90
2023-05-24T17:05:45.080Z,17.80
2023-05-24T17:08:11.750Z,17.80
2023-05-24T17:10:38.492Z,17.70
2023-05-24T17:13:05.077Z,17.60
2023-05-24T17:15:31.677Z,17.60
2023-05-24T17:17:59.334Z,17.50
2023-05-24T17:20:25.965Z,17.40
2023-05-24T17:22:52.624Z,17.30
2023-05-24T17:25:19.272Z,17.30
2023-05-24T17:27:45.907Z,17.30
2023-05-24T17:30:12.684Z,17.30
2023-05-24T17:32:41.157Z,17.20
2023-05-24T17:35:08.020Z,17.00
2023-05-24T17:37:34.704Z,17.10
2023-05-24T17:40:01.616Z,17.10
2023-05-24T17:42:28.252Z,17.30
2023-05-24T17:44:54.904Z,17.90
2023-05-24T17:47:23.250Z,18.40
2023-05-24T17:49:49.895Z,18.80
2023-05-24T17:52:16.549Z,18.70
2023-05-24T17:54:43.147Z,18.30
2023-05-24T17:57:10.027Z,17.90
2023-05-24T17:59:36.760Z,17.60
2023-05-24T18:02:04.686Z,17.30
2023-05-24T18:04:32.748Z,17.20
2023-05-24T18:06:59.394Z,17.00
2023-05-24T18:09:27.402Z,16.80
2023-05-24T18:11:54.017Z,18.80
2023-05-24T18:14:21.077Z,16.70
2023-05-24T18:16:47.731Z,16.60
2023-05-24T18:19:14.853Z,16.50
2023-05-24T18:21:41.502Z,16.40
2023-05-24T18:24:08.136Z,16.40
2023-05-24T18:26:34.797Z,16.30
2023-05-24T18:29:01.399Z,16.30
2023-05-24T18:31:28.059Z,16.20
2023-05-24T18:33:55.049Z,16.10
2023-05-24T18:36:21.885Z,16.10
2023-05-24T18:38:48.643Z,16.00
2023-05-24T18:41:16.488Z,15.90
2023-05-24T18:43:43.517Z,15.80
2023-05-24T18:46:13.422Z,15.70
2023-05-24T18:48:40.771Z,15.60
2023-05-24T18:51:07.935Z,15.60
2023-05-24T18:53:34.991Z,15.50
2023-05-24T18:56:01.940Z,15.40
2023-05-24T18:58:28.581Z,15.40
2023-05-24T19:00:55.379Z,15.30
2023-05-24T19:03:22.574Z,15.30
2023-05-24T19:05:49.527Z,15.30
2023-05-24T19:08:16.523Z,15.20
2023-05-24T19:10:43.219Z,15.00
2023-05-24T19:13:09.834Z,15.00
2023-05-24T19:15:39.152Z,14.90
2023-05-24T19:18:06.219Z,14.30
2023-05-24T19:20:32.911Z,14.70
2023-05-24T19:22:59.599Z,14.60
2023-05-24T19:25:26.378Z,14.50
2023-05-24T19:27:59.268Z,12.80
2023-05-24T19:30:26.992Z,14.40
2023-05-24T19:32:53.741Z,14.40
2023-05-24T19:35:21.005Z,14.30
2023-05-24T19:37:47.773Z,14.30
2023-05-24T19:40:14.732Z,14.20
2023-05-24T19:42:41.520Z,14.10
2023-05-24T19:45:09.426Z,14.00
2023-05-24T19:47:36.318Z,14.00
2023-05-24T19:50:03.239Z,14.00
2023-05-24T19:52:29.913Z,13.90
2023-05-24T19:54:56.672Z,13.80
2023-05-24T19:57:23.329Z,13.80
2023-05-24T19:59:50.027Z,13.80
2023-05-24T20:02:16.675Z,13.70
2023-05-24T20:04:43.992Z,13.70
2023-05-24T20:07:10.993Z,12.40
2023-05-24T20:09:37.719Z,13.60
2023-05-24T20:12:04.669Z,13.60
2023-05-24T20:14:31.581Z,13.60
2023-05-24T20:16:59.002Z,13.60
2023-05-24T20:19:27.174Z,13.50
2023-05-24T20:21:54.144Z,13.50
2023-05-24T20:24:20.833Z,13.50
2023-05-24T20:26:47.528Z,13.50
2023-05-24T20:29:14.300Z,13.50
2023-05-24T20:31:41.365Z,13.50
2023-05-24T20:34:08.195Z,13.40
2023-05-24T20:36:34.816Z,13.30
2023-05-24T20:39:01.491Z,12.60
2023-05-24T20:41:30.496Z,13.30
2023-05-24T20:43:57.202Z,13.30
2023-05-24T20:46:23.978Z,13.30
2023-05-24T20:48:51.568Z,13.30
2023-05-24T20:51:19.323Z,13.30
2023-05-24T20:53:46.886Z,13.30
2023-05-24T20:56:13.598Z,13.30
2023-05-24T20:58:41.320Z,13.20
2023-05-24T21:01:08.601Z,13.30
2023-05-24T21:03:35.744Z,13.30
2023-05-24T21:06:03.114Z,13.30
2023-05-24T21:08:29.830Z,13.20
2023-05-24T21:10:56.829Z,13.20
2023-05-24T21:13:25.463Z,13.20
2023-05-24T21:15:52.189Z,13.10
2023-05-24T21:18:18.873Z,13.10
2023-05-24T21:20:45.502Z,13.10
2023-05-24T21:23:12.181Z,13.10
2023-05-24T21:25:38.810Z,13.00
2023-05-24T21:28:05.883Z,13.00
2023-05-24T21:30:32.655Z,12.90
2023-05-24T21:32:59.657Z,12.90
2023-05-24T21:35:26.622Z,12.90
2023-05-24T21:37:53.385Z,12.90
2023-05-24T21:40:20.043Z,12.90
2023-05-24T21:42:46.761Z,12.90
2023-05-24T21:45:13.406Z,12.90
2023-05-24T21:47:40.182Z,12.90
2023-05-24T21:50:07.584Z,12.90
2023-05-24T21:52:34.206Z,12.80
2023-05-24T21:55:01.506Z,12.80
2023-05-24T21:57:28.142Z,12.80
2023-05-24T21:59:54.916Z,12.70
2023-05-24T22:02:21.670Z,14.60
2023-05-24T22:05:07.231Z,12.70
2023-05-24T22:07:34.108Z,12.70
2023-05-24T22:10:00.737Z,12.60
2023-05-24T22:12:27.389Z,12.60
2023-05-24T22:14:54.333Z,12.60
2023-05-24T22:17:21.994Z,12.60
2023-05-24T22:19:49.013Z,12.60
2023-05-24T22:22:19.495Z,12.60
2023-05-24T22:24:49.140Z,13.10
2023-05-24T22:27:16.872Z,12.50
2023-05-24T22:29:43.624Z,12.40
2023-05-24T22:32:10.225Z,12.40
2023-05-24T22:34:36.848Z,12.40
2023-05-24T22:37:04.215Z,12.30
2023-05-24T22:39:31.009Z,12.30
2023-05-24T22:41:57.599Z,12.30
2023-05-24T22:44:24.265Z,12.30
2023-05-24T22:46:53.780Z,12.30
2023-05-24T22:49:20.596Z,12.30
2023-05-24T22:51:48.346Z,12.30
2023-05-24T22:54:15.173Z,12.20
2023-05-24T22:56:42.056Z,11.20
2023-05-24T22:59:08.902Z,13.60
2023-05-24T23:01:36.003Z,12.10
2023-05-24T23:04:18.831Z,12.20
2023-05-24T23:06:46.981Z,12.20
2023-05-24T23:09:13.724Z,12.10
2023-05-24T23:11:40.383Z,12.10
2023-05-24T23:14:08.792Z,12.10
2023-05-24T23:16:46.080Z,9.60
2023-05-24T23:19:18.309Z,12.00
2023-05-24T23:21:45.465Z,12.00
2023-05-24T23:24:14.687Z,12.00
2023-05-24T23:26:42.288Z,12.00
2023-05-24T23:29:09.124Z,12.00
2023-05-24T23:31:36.193Z,12.00
2023-05-24T23:34:02.985Z,12.00
2023-05-24T23:36:29.606Z,11.90
2023-05-24T23:38:56.575Z,11.80
2023-05-24T23:41:23.181Z,12.00
2023-05-24T23:43:49.855Z,11.80
2023-05-24T23:48:43.853Z,11.60
2023-05-24T23:51:10.615Z,11.70
2023-05-24T23:53:37.308Z,11.60
2023-05-24T23:56:04.032Z,11.60
2023-05-24T23:58:31.940Z,11.60
